Time;durP1;ratioP1;P1;durP2;ratioP2;P2;SDS_P1;SDS_P2;PMS_P1;PMS_P2;Temp;Humidity;BMP_temperature;BMP_pressure;BME280_temperature;BME280_humidity;BME280_pressure;Samples;Min_cycle;Max_cycle;Signal;HPM_P1;HPM_P2
2022/10/07 00:01:56;;;;;;;6.10;2.97;;;;;;;12.99;100.00;99260.28;5034365;28;20217;-71
2022/10/07 00:04:22;;;;;;;4.47;2.73;;;;;;;13.11;100.00;99257.81;5034020;28;20206;-71
2022/10/07 00:06:49;;;;;;;7.87;3.17;;;;;;;13.13;100.00;99259.25;5034329;28;20228;-71
2022/10/07 00:09:15;;;;;;;6.10;2.70;;;;;;;13.11;100.00;99261.28;5034212;28;20216;-71
2022/10/07 00:11:42;;;;;;;7.03;2.77;;;;;;;13.06;100.00;99261.06;5033780;28;20711;-71
2022/10/07 00:14:09;;;;;;;7.93;2.77;;;;;;;13.02;100.00;99254.50;5034227;28;20210;-71
2022/10/07 00:16:38;;;;;;;3.90;2.67;;;;;;;12.99;100.00;99260.28;5034199;28;20684;-71
2022/10/07 00:19:08;;;;;;;6.20;2.83;;;;;;;12.99;100.00;99249.59;5034136;28;20213;-71
2022/10/07 00:21:36;;;;;;;5.43;2.73;;;;;;;12.98;100.00;99250.59;5034018;28;20700;-71
2022/10/07 00:24:03;;;;;;;5.60;2.93;;;;;;;12.99;100.00;99249.59;5034078;28;20206;-71
2022/10/07 00:26:32;;;;;;;5.47;2.70;;;;;;;12.98;100.00;99247.94;5034052;28;20226;-71
2022/10/07 00:28:59;;;;;;;5.10;2.77;;;;;;;12.98;100.00;99245.25;5033779;28;20209;-71
2022/10/07 00:31:31;;;;;;;8.63;2.80;;;;;;;13.00;100.00;99245.06;5033887;28;20226;-71
2022/10/07 00:33:59;;;;;;;7.43;3.17;;;;;;;13.02;100.00;99249.16;5033577;28;20210;-71
2022/10/07 00:36:28;;;;;;;6.43;3.23;;;;;;;13.06;100.00;99237.06;5033997;28;20201;-71
2022/10/07 00:39:21;;;;;;;9.30;3.30;;;;;;;13.00;100.00;99232.53;5033640;28;20380;-71
2022/10/07 00:41:50;;;;;;;6.47;2.97;;;;;;;13.02;100.00;99227.81;5030770;28;20221;-71
2022/10/07 00:44:32;;;;;;;5.47;3.33;;;;;;;13.02;100.00;99222.47;5033777;28;20220;-71
2022/10/07 00:47:04;;;;;;;7.90;2.90;;;;;;;13.03;100.00;99218.75;5033605;28;20296;-71
2022/10/07 00:49:43;;;;;;;8.87;3.20;;;;;;;13.02;100.00;99211.78;5033663;28;20194;-71
2022/10/07 00:52:11;;;;;;;8.20;3.17;;;;;;;13.06;100.00;99212.22;5033871;28;20202;-71
2022/10/07 00:54:39;;;;;;;5.53;2.80;;;;;;;13.05;100.00;99207.88;5033629;28;20209;-71
2022/10/07 00:57:05;;;;;;;8.40;3.23;;;;;;;13.02;100.00;99216.31;5033306;28;20210;-71
2022/10/07 00:59:33;;;;;;;9.83;3.30;;;;;;;13.02;100.00;99208.31;5033498;28;20217;-71
2022/10/07 01:02:00;;;;;;;7.43;3.43;;;;;;;13.03;100.00;99205.41;5033475;28;20205;-71
2022/10/07 01:04:26;;;;;;;10.40;3.30;;;;;;;13.03;100.00;99202.75;5033575;28;20241;-71
2022/10/07 01:06:53;;;;;;;6.27;2.93;;;;;;;13.02;100.00;99203.78;5033457;28;20232;-71
2022/10/07 01:09:20;;;;;;;11.17;3.40;;;;;;;13.01;100.00;99195.97;5033534;28;20202;-71
2022/10/07 01:12:05;;;;;;;7.30;3.10;;;;;;;13.05;100.00;99208.72;5033189;28;20688;-71
2022/10/07 01:14:41;;;;;;;7.20;2.73;;;;;;;13.08;100.00;99202.97;5033448;28;20209;-71
2022/10/07 01:17:18;;;;;;;6.90;3.33;;;;;;;13.10;100.00;99194.72;5033385;28;20668;-71
2022/10/07 01:19:50;;;;;;;6.23;2.90;;;;;;;13.01;100.00;99191.47;5032461;28;20592;-71
2022/10/07 01:22:36;;;;;;;5.47;2.83;;;;;;;12.86;100.00;99188.16;5033442;28;20194;-72
2022/10/07 01:25:12;;;;;;;7.03;3.10;;;;;;;12.86;100.00;99184.66;5033402;28;20200;-71
2022/10/07 01:27:44;;;;;;;8.33;2.83;;;;;;;12.88;100.00;99188.78;5033883;28;20218;-71
2022/10/07 01:30:11;;;;;;;5.60;2.60;;;;;;;12.86;100.00;99188.16;5032873;28;20228;-71
2022/10/07 01:32:43;;;;;;;5.23;2.87;;;;;;;12.87;100.00;99181.78;5033549;28;20212;-71
2022/10/07 01:35:17;;;;;;;6.93;3.40;;;;;;;12.90;100.00;99176.06;5016151;28;20201;-71
2022/10/07 01:37:51;;;;;;;7.83;3.13;;;;;;;12.91;100.00;99174.19;5033319;28;20239;-71
2022/10/07 01:40:24;;;;;;;7.27;2.73;;;;;;;12.93;100.00;99169.47;5034765;28;20716;-71
2022/10/07 01:42:51;;;;;;;8.67;3.30;;;;;;;12.94;100.00;99173.78;5037641;28;20194;-71
2022/10/07 01:45:20;;;;;;;7.77;3.30;;;;;;;12.99;100.00;99166.00;5037045;28;20221;-71
2022/10/07 01:47:48;;;;;;;6.30;3.20;;;;;;;12.95;100.00;99162.91;5036964;28;20276;-71
2022/10/07 01:50:16;;;;;;;7.20;3.10;;;;;;;12.94;100.00;99166.59;5037432;28;20233;-71
2022/10/07 01:53:18;;;;;;;5.00;3.17;;;;;;;12.94;100.00;99157.78;5036936;28;20216;-71
2022/10/07 01:56:11;;;;;;;8.03;3.10;;;;;;;12.93;100.00;99156.13;5036909;28;20190;-71
2022/10/07 01:59:14;;;;;;;9.33;3.80;;;;;;;12.91;100.00;99151.00;5036853;28;20193;-72
2022/10/07 02:01:56;;;;;;;6.67;3.40;;;;;;;12.88;100.00;99153.28;5036698;28;20232;-71
2022/10/07 02:04:31;;;;;;;5.30;3.37;;;;;;;12.93;100.00;99151.59;5036740;28;20193;-72
2022/10/07 02:07:04;;;;;;;7.40;3.17;;;;;;;12.98;100.00;99143.00;5036619;28;20220;-72
2022/10/07 02:09:52;;;;;;;9.50;3.80;;;;;;;12.93;100.00;99145.47;5035106;28;20551;-71
2022/10/07 02:12:26;;;;;;;7.63;3.73;;;;;;;12.87;100.00;99138.25;5036579;28;20198;-71
2022/10/07 02:15:16;;;;;;;6.17;3.47;;;;;;;12.90;100.00;99133.34;5036566;28;20190;-72
2022/10/07 02:17:49;;;;;;;8.93;3.90;;;;;;;12.92;100.00;99141.97;5036561;28;20202;-71
2022/10/07 02:20:18;;;;;;;6.90;3.73;;;;;;;12.88;100.00;99135.38;5034944;28;20237;-71
2022/10/07 02:22:46;;;;;;;8.70;4.00;;;;;;;12.85;100.00;99124.31;5035173;28;20212;-72
2022/10/07 02:25:17;;;;;;;8.33;4.00;;;;;;;12.77;100.00;99130.69;5035434;28;20209;-72
2022/10/07 02:27:47;;;;;;;10.43;4.23;;;;;;;12.76;100.00;99131.72;5036802;28;20216;-72
2022/10/07 02:30:18;;;;;;;11.20;4.43;;;;;;;12.78;100.00;99128.81;5035993;28;20227;-71
2022/10/07 02:32:52;;;;;;;6.63;3.73;;;;;;;12.80;100.00;99121.44;5035931;28;20651;-71
2022/10/07 02:35:26;;;;;;;10.63;3.63;;;;;;;12.82;100.00;99122.03;5036170;28;20641;-72
2022/10/07 02:37:55;;;;;;;7.90;4.10;;;;;;;12.76;100.00;99114.88;5036149;28;20189;-71
2022/10/07 02:40:25;;;;;;;8.10;4.13;;;;;;;12.77;100.00;99112.00;5036252;28;20248;-72
2022/10/07 02:42:55;;;;;;;8.37;3.90;;;;;;;12.79;100.00;99112.59;5035686;28;20691;-72
2022/10/07 02:45:41;;;;;;;9.13;4.00;;;;;;;12.80;100.00;99111.56;5036081;28;20204;-72
2022/10/07 02:48:31;;;;;;;9.90;3.93;;;;;;;12.82;100.00;99112.22;5035918;28;20213;-71
2022/10/07 02:51:02;;;;;;;7.40;3.73;;;;;;;12.84;100.00;99110.13;5035815;28;20327;-71
2022/10/07 02:53:31;;;;;;;7.23;4.00;;;;;;;12.81;100.00;99107.06;5018503;28;20207;-72
2022/10/07 02:56:01;;;;;;;9.93;4.13;;;;;;;12.76;100.00;99102.38;5035760;28;20263;-71
2022/10/07 02:58:27;;;;;;;8.87;4.23;;;;;;;12.77;100.00;99100.50;5035380;28;20683;-72
2022/10/07 03:01:01;;;;;;;11.07;4.47;;;;;;;12.81;100.00;99097.22;5035580;28;20221;-71
2022/10/07 03:03:29;;;;;;;7.40;3.93;;;;;;;12.81;100.00;99094.56;5035473;28;20198;-72
2022/10/07 03:05:55;;;;;;;6.90;4.00;;;;;;;12.82;100.00;99087.34;5035602;28;20217;-71
2022/10/07 03:08:22;;;;;;;9.60;4.00;;;;;;;12.80;100.00;99095.56;5035406;28;20553;-71
2022/10/07 03:10:49;;;;;;;9.77;4.10;;;;;;;12.80;100.00;99087.56;5035321;28;20241;-71
2022/10/07 03:13:15;;;;;;;7.60;3.73;;;;;;;12.83;100.00;99087.16;5035518;28;20213;-71
2022/10/07 03:15:42;;;;;;;9.97;3.70;;;;;;;12.86;100.00;99084.09;5034901;28;20648;-71
2022/10/07 03:18:24;;;;;;;5.53;3.43;;;;;;;12.86;100.00;99089.41;5036085;28;20256;-71
2022/10/07 03:20:52;;;;;;;7.27;3.83;;;;;;;12.91;100.00;99081.59;5035260;28;20225;-71
2022/10/07 03:23:19;;;;;;;8.30;3.80;;;;;;;12.94;100.00;99086.50;5034940;28;20676;-71
2022/10/07 03:25:50;;;;;;;8.33;3.70;;;;;;;12.90;100.00;99079.97;5034838;28;20214;-71
2022/10/07 03:28:16;;;;;;;6.13;3.40;;;;;;;12.89;100.00;99077.50;5034990;28;20221;-71
2022/10/07 03:30:43;;;;;;;6.43;3.33;;;;;;;12.86;100.00;99075.25;5034875;28;20249;-72
2022/10/07 03:33:09;;;;;;;5.33;3.20;;;;;;;12.87;100.00;99075.03;5034524;28;20615;-71
2022/10/07 03:35:35;;;;;;;7.47;3.40;;;;;;;12.88;100.00;99076.66;5035052;28;20554;-71
2022/10/07 03:38:05;;;;;;;5.13;3.07;;;;;;;12.87;100.00;99066.19;5034791;28;20206;-72
2022/10/07 03:40:32;;;;;;;6.70;3.10;;;;;;;12.86;100.00;99064.56;5034399;28;20324;-71
2022/10/07 03:42:58;;;;;;;6.37;3.20;;;;;;;12.82;100.00;99066.84;5034666;28;20205;-71
2022/10/07 03:45:25;;;;;;;8.80;3.53;;;;;;;12.84;100.00;99070.09;5034484;28;20212;-72
2022/10/07 03:47:51;;;;;;;7.30;2.73;;;;;;;12.87;100.00;99067.03;5034337;28;20321;-71
2022/10/07 03:50:17;;;;;;;5.60;3.30;;;;;;;12.87;100.00;99075.03;5034448;28;20229;-72
2022/10/07 03:52:44;;;;;;;5.60;2.90;;;;;;;12.83;100.00;99056.97;5034241;28;20242;-71
2022/10/07 03:55:10;;;;;;;6.37;2.90;;;;;;;12.84;100.00;99062.09;5034531;28;20213;-72
2022/10/07 03:57:52;;;;;;;7.47;3.07;;;;;;;12.81;100.00;99059.88;5034230;28;20592;-71
2022/10/07 04:00:22;;;;;;;6.47;3.40;;;;;;;12.82;100.00;99056.16;5034420;28;20225;-72
2022/10/07 04:02:50;;;;;;;4.43;2.93;;;;;;;12.81;100.00;99053.69;5033824;28;20573;-72
2022/10/07 04:05:17;;;;;;;6.37;3.10;;;;;;;12.83;100.00;99052.47;5035121;28;20213;-72
2022/10/07 04:07:48;;;;;;;8.83;2.93;;;;;;;12.80;100.00;99044.88;5033823;28;20226;-71
2022/10/07 04:10:17;;;;;;;7.50;3.63;;;;;;;12.79;100.00;99051.22;5034298;28;20240;-72
2022/10/07 04:12:44;;;;;;;8.70;3.43;;;;;;;12.76;100.00;99049.00;5034301;28;20213;-72
2022/10/07 04:15:12;;;;;;;4.97;3.00;;;;;;;12.77;100.00;99041.78;5034422;28;20211;-71
2022/10/07 04:17:42;;;;;;;6.73;3.20;;;;;;;12.78;100.00;99038.94;5034069;28;20209;-71
2022/10/07 04:20:10;;;;;;;4.97;3.17;;;;;;;12.75;100.00;99046.53;5033543;28;20233;-72
2022/10/07 04:22:36;;;;;;;7.27;3.50;;;;;;;12.72;100.00;99044.28;5033405;28;20210;-72
2022/10/07 04:27:55;;;;;;;6.63;3.20;;;;;;;12.74;100.00;99037.69;5034139;28;20207;-72
2022/10/07 04:30:23;;;;;;;9.23;3.57;;;;;;;12.72;100.00;99029.09;5033795;28;20230;-71
2022/10/07 04:32:50;;;;;;;9.00;3.50;;;;;;;12.71;100.00;99040.78;5033672;28;20209;-71
2022/10/07 04:35:20;;;;;;;6.00;3.50;;;;;;;12.72;100.00;99030.94;5033445;28;20607;-72
2022/10/07 04:37:51;;;;;;;5.67;3.30;;;;;;;12.73;100.00;99024.56;5033028;28;20209;-71
2022/10/07 04:40:22;;;;;;;9.87;3.60;;;;;;;12.75;100.00;99019.84;5033312;28;20244;-72
2022/10/07 04:45:37;;;;;;;6.20;3.47;;;;;;;12.75;100.00;99011.84;5033454;28;20185;-72
2022/10/07 04:48:05;;;;;;;9.37;3.47;;;;;;;12.74;100.00;99015.53;5033412;28;20218;-71
2022/10/07 04:50:35;;;;;;;7.80;3.77;;;;;;;12.73;100.00;99013.88;5033542;28;20228;-71
2022/10/07 04:53:02;;;;;;;4.87;3.40;;;;;;;12.73;100.00;99016.56;5033240;28;20619;-71
2022/10/07 04:55:28;;;;;;;8.70;3.27;;;;;;;12.72;100.00;99010.41;5033158;28;20541;-72
2022/10/07 04:57:54;;;;;;;7.10;3.30;;;;;;;12.67;100.00;99010.22;5032942;28;20205;-71
2022/10/07 05:00:21;;;;;;;8.43;3.80;;;;;;;12.66;100.00;99018.44;5032815;28;20241;-71
2022/10/07 05:02:49;;;;;;;6.80;3.77;;;;;;;12.66;100.00;99008.56;5033058;28;20233;-72
2022/10/07 05:05:17;;;;;;;6.30;3.40;;;;;;;12.65;100.00;99012.28;5033021;28;20668;-71
2022/10/07 05:07:43;;;;;;;7.70;3.63;;;;;;;12.66;100.00;99018.44;5033145;28;20222;-69
2022/10/07 05:10:13;;;;;;;6.27;3.50;;;;;;;12.63;100.00;99002.84;5033121;28;20291;-71
2022/10/07 05:12:40;;;;;;;7.80;3.50;;;;;;;12.57;100.00;99009.81;5033232;28;20217;-71
2022/10/07 05:15:15;;;;;;;7.00;3.97;;;;;;;12.63;100.00;99008.19;5034916;28;20213;-71
2022/10/07 05:17:42;;;;;;;7.13;3.43;;;;;;;12.62;100.00;99006.53;5037145;28;20193;-71
2022/10/07 05:20:11;;;;;;;5.57;3.53;;;;;;;12.59;100.00;99005.13;5037040;28;20742;-71
2022/10/07 05:22:38;;;;;;;8.40;4.03;;;;;;;12.57;100.00;99012.47;5036903;28;20576;-71
2022/10/07 05:25:04;;;;;;;8.10;3.43;;;;;;;12.61;100.00;99010.25;5036952;28;20209;-71
2022/10/07 05:27:31;;;;;;;9.23;3.83;;;;;;;12.63;100.00;99006.34;5036428;28;20227;-71
2022/10/07 05:29:58;;;;;;;10.20;3.93;;;;;;;12.65;100.00;99004.28;5036949;28;20316;-71
2022/10/07 05:32:24;;;;;;;6.40;3.53;;;;;;;12.64;100.00;99005.31;5037054;28;20209;-71
2022/10/07 05:34:51;;;;;;;6.70;3.23;;;;;;;12.62;100.00;99007.34;5036304;28;20615;-71
2022/10/07 05:37:17;;;;;;;5.80;3.83;;;;;;;12.61;100.00;99002.25;5036587;28;20582;-70
2022/10/07 05:39:43;;;;;;;6.90;3.80;;;;;;;12.62;100.00;98996.66;5036466;28;20225;-71
2022/10/07 05:42:12;;;;;;;7.43;3.90;;;;;;;12.63;100.00;98995.66;5036622;28;20194;-71
2022/10/07 05:44:39;;;;;;;6.13;3.67;;;;;;;12.66;100.00;99002.44;5036587;28;20212;-71
2022/10/07 05:47:05;;;;;;;7.37;4.27;;;;;;;12.70;100.00;98998.31;5036157;28;20296;-70
2022/10/07 05:49:31;;;;;;;12.50;4.23;;;;;;;12.70;100.00;99001.78;5036676;28;20232;-71
2022/10/07 05:51:58;;;;;;;10.00;3.77;;;;;;;12.74;100.00;99000.34;5036586;28;20205;-70
2022/10/07 05:54:24;;;;;;;9.00;4.13;;;;;;;12.75;100.00;98999.31;5035822;28;20209;-70
2022/10/07 05:56:51;;;;;;;10.50;4.23;;;;;;;12.75;100.00;98991.31;5036171;28;20206;-69
2022/10/07 05:59:19;;;;;;;7.20;3.60;;;;;;;12.75;100.00;98993.97;5036307;28;20599;-69
2022/10/07 06:01:45;;;;;;;6.90;3.90;;;;;;;12.75;100.00;98995.84;5036625;28;20237;-69
2022/10/07 06:04:12;;;;;;;8.83;3.60;;;;;;;12.76;100.00;98992.97;5036528;28;20213;-70
2022/10/07 06:06:39;;;;;;;11.50;3.90;;;;;;;12.80;100.00;98994.16;5036240;28;20220;-70
2022/10/07 06:14:30;;;;;;;7.47;3.73;;;;;;;12.98;100.00;98986.31;5036064;28;20176;-69
2022/10/07 06:16:56;;;;;;;10.07;3.80;;;;;;;13.04;100.00;98982.81;5036593;28;20216;-69
2022/10/07 06:19:23;;;;;;;14.43;4.03;;;;;;;13.06;100.00;98994.09;5036096;28;20205;-70
2022/10/07 06:21:50;;;;;;;11.33;3.87;;;;;;;13.10;100.00;98989.97;5035914;28;20228;-69
2022/10/07 06:24:17;;;;;;;10.80;4.00;;;;;;;13.14;100.00;98991.19;5036339;28;20206;-70
2022/10/07 06:26:43;;;;;;;10.03;3.90;;;;;;;13.20;100.00;98982.31;5035441;28;20214;-70
2022/10/07 06:29:09;;;;;;;8.73;4.03;;;;;;;13.27;100.00;98984.97;5035803;28;20237;-68
2022/10/07 06:31:36;;;;;;;9.90;4.20;;;;;;;13.30;100.00;98985.34;5035435;28;20237;-68
2022/10/07 06:34:02;;;;;;;10.17;4.20;;;;;;;13.29;100.00;98983.72;5035827;28;20577;-67
2022/10/07 06:36:29;;;;;;;10.17;4.37;;;;;;;13.34;100.00;98989.22;5035929;28;20214;-69
2022/10/07 06:38:55;;;;;;;10.27;4.50;;;;;;;13.43;100.00;98992.50;5034785;28;20212;-68
2022/10/07 06:41:23;;;;;;;7.50;4.13;;;;;;;13.47;100.00;98986.50;5035184;28;20260;-68
2022/10/07 06:43:49;;;;;;;9.53;4.67;;;;;;;13.53;100.00;98987.50;5035277;28;20210;-70
2022/10/07 06:46:18;;;;;;;9.77;5.03;;;;;;;13.59;100.00;98989.31;5035337;28;20217;-68
2022/10/07 06:48:45;;;;;;;12.23;5.60;;;;;;;13.67;100.00;98992.56;5034661;28;20701;-68
2022/10/07 06:51:16;;;;;;;9.77;4.63;;;;;;;13.76;100.00;98979.75;5035268;28;20284;-67
2022/10/07 06:53:44;;;;;;;12.83;5.67;;;;;;;13.74;100.00;98981.81;5035099;28;20541;-68
2022/10/07 06:56:12;;;;;;;16.23;5.67;;;;;;;13.75;100.00;98984.25;5035046;28;20213;-69
2022/10/07 06:58:39;;;;;;;10.87;5.07;;;;;;;13.84;100.00;98993.63;5035293;28;20225;-69
2022/10/07 07:01:05;;;;;;;12.13;5.33;;;;;;;13.88;100.00;98994.84;5035311;28;20230;-68
2022/10/07 07:03:32;;;;;;;10.77;5.30;;;;;;;14.02;100.00;98990.25;5035129;28;20206;-69
2022/10/07 07:05:59;;;;;;;11.40;5.47;;;;;;;14.09;100.00;98989.13;5035416;28;20205;-68
2022/10/07 07:08:28;;;;;;;9.30;5.27;;;;;;;14.23;100.00;98995.22;5033771;28;20230;-68
2022/10/07 07:10:55;;;;;;;12.83;5.53;;;;;;;14.38;100.00;98990.38;5035015;28;20268;-68
2022/10/07 07:13:21;;;;;;;10.13;5.37;;;;;;;14.27;100.00;98996.41;5034692;28;20226;-68
2022/10/07 07:15:58;;;;;;;12.23;5.00;;;;;;;14.29;100.00;98989.00;5034896;28;20206;-68
2022/10/07 07:18:25;;;;;;;10.53;5.13;;;;;;;14.37;100.00;98988.69;5035012;28;20202;-68
2022/10/07 07:20:52;;;;;;;12.77;5.33;;;;;;;14.30;100.00;98988.75;5034978;28;20236;-68
2022/10/07 07:23:18;;;;;;;9.27;5.17;;;;;;;14.37;100.00;98991.38;5034771;28;20232;-68
2022/10/07 07:25:45;;;;;;;12.57;5.70;;;;;;;14.45;100.00;98980.41;5034465;28;20739;-69
2022/10/07 07:28:14;;;;;;;9.83;5.33;;;;;;;14.48;100.00;98985.31;5034310;28;20673;-68
2022/10/07 07:30:40;;;;;;;8.80;4.83;;;;;;;14.52;100.00;98979.28;5034654;28;20684;-69
2022/10/07 07:33:07;;;;;;;9.00;5.50;;;;;;;14.56;100.00;98985.84;5034616;28;20209;-69
2022/10/07 07:35:38;;;;;;;9.03;5.57;;;;;;;14.63;100.00;98983.09;5034286;28;20747;-68
2022/10/07 07:38:05;;;;;;;13.87;6.70;;;;;;;14.65;100.00;98975.69;5033758;28;20190;-69
2022/10/07 07:40:31;;;;;;;12.73;5.93;;;;;;;14.77;100.00;98974.72;5034543;28;20244;-68
2022/10/07 07:42:57;;;;;;;10.97;5.70;;;;;;;14.90;100.00;98974.56;5034378;28;20213;-68
2022/10/07 07:45:24;;;;;;;13.63;6.23;;;;;;;14.90;100.00;98969.19;5033985;28;20634;-68
2022/10/07 07:47:51;;;;;;;11.87;6.27;;;;;;;15.05;100.00;98976.84;5033990;28;20661;-69
2022/10/07 07:50:19;;;;;;;12.63;6.50;;;;;;;15.10;100.00;98974.31;5033797;28;20752;-68
2022/10/07 07:52:46;;;;;;;11.97;6.67;;;;;;;15.18;100.00;98960.59;5033833;28;20687;-68
2022/10/07 07:55:13;;;;;;;10.97;5.70;;;;;;;15.24;98.87;98962.41;5033996;28;20694;-68
2022/10/07 07:57:40;;;;;;;10.60;5.93;;;;;;;15.34;99.22;98968.06;5034288;28;20252;-68
2022/10/07 08:00:07;;;;;;;14.63;6.03;;;;;;;15.41;98.94;98966.91;5034469;28;20329;-68
2022/10/07 08:02:33;;;;;;;12.67;6.10;;;;;;;15.51;98.52;98964.50;5033936;28;20665;-69
2022/10/07 08:05:00;;;;;;;13.33;5.53;;;;;;;15.58;97.77;98965.22;5034202;28;20662;-68
2022/10/07 08:07:26;;;;;;;8.33;5.00;;;;;;;15.67;97.79;98958.50;5034149;28;20680;-68
2022/10/07 08:09:53;;;;;;;10.33;5.73;;;;;;;15.76;96.78;98953.59;5033553;28;20234;-69
2022/10/07 08:12:22;;;;;;;9.87;5.00;;;;;;;15.86;95.76;98957.38;5034062;28;20645;-70
2022/10/07 08:14:48;;;;;;;11.20;4.90;;;;;;;16.00;95.21;98963.31;5033631;28;20680;-69
2022/10/07 08:17:14;;;;;;;12.17;5.50;;;;;;;15.98;95.82;98949.34;5033814;28;20210;-69
2022/10/07 08:19:41;;;;;;;13.60;5.50;;;;;;;16.18;96.50;98953.31;5033912;28;20237;-69
2022/10/07 08:22:08;;;;;;;10.53;4.77;;;;;;;16.28;92.84;98950.06;5033951;28;20232;-69
2022/10/07 08:24:34;;;;;;;11.30;5.10;;;;;;;16.27;92.02;98954.59;5033958;28;20347;-70
2022/10/07 08:27:01;;;;;;;6.27;3.93;;;;;;;16.44;90.56;98944.00;5033554;28;20210;-69
2022/10/07 08:29:29;;;;;;;7.07;4.33;;;;;;;16.31;90.93;98945.03;5033575;28;20318;-70
2022/10/07 08:31:55;;;;;;;6.57;4.57;;;;;;;16.50;90.38;98943.88;5033791;28;20214;-70
2022/10/07 08:34:21;;;;;;;8.77;4.77;;;;;;;16.61;89.74;98942.25;5033354;28;20666;-69
2022/10/07 08:36:49;;;;;;;8.97;4.50;;;;;;;16.44;91.02;98942.16;5033513;28;20264;-70
2022/10/07 08:39:16;;;;;;;11.47;5.07;;;;;;;16.51;90.01;98945.50;5033588;28;20323;-69
2022/10/07 08:41:51;;;;;;;7.57;4.70;;;;;;;16.50;91.84;98938.50;5033069;28;20230;-70
2022/10/07 08:44:30;;;;;;;8.43;4.67;;;;;;;16.64;89.90;98934.53;5033312;28;20209;-70
2022/10/07 08:47:10;;;;;;;6.40;3.60;;;;;;;16.76;87.97;98935.34;5032182;28;20200;-70
2022/10/07 08:49:57;;;;;;;7.77;3.50;;;;;;;16.83;88.48;98936.00;5032100;28;20213;-69
2022/10/07 08:52:33;;;;;;;6.60;3.40;;;;;;;16.81;88.39;98927.38;5033516;28;20198;-70
2022/10/07 08:55:01;;;;;;;7.10;3.03;;;;;;;17.00;87.62;98926.16;5033181;28;20656;-70
2022/10/07 08:57:53;;;;;;;7.50;3.10;;;;;;;17.15;84.03;98918.38;5033404;28;20260;-70
2022/10/07 09:00:23;;;;;;;3.87;3.00;;;;;;;17.21;84.91;98922.81;5032859;28;20244;-69
2022/10/07 09:02:57;;;;;;;9.77;3.00;;;;;;;17.23;83.75;98920.69;5033079;28;20230;-69
2022/10/07 09:05:32;;;;;;;4.07;2.80;;;;;;;17.48;83.38;98923.06;5032822;28;20653;-70
2022/10/07 09:08:09;;;;;;;4.77;3.27;;;;;;;17.40;83.20;98921.56;5033019;28;20213;-70
2022/10/07 09:10:41;;;;;;;5.47;2.67;;;;;;;17.52;82.37;98919.66;5031799;28;20244;-70
2022/10/07 09:13:25;;;;;;;7.63;3.10;;;;;;;17.59;82.81;98925.69;5031978;28;20190;-69
2022/10/07 09:16:15;;;;;;;5.87;2.90;;;;;;;17.35;82.54;98917.94;5033474;28;20200;-69
2022/10/07 09:18:49;;;;;;;6.63;2.90;;;;;;;17.67;81.04;98913.69;5033197;28;20201;-69
2022/10/07 09:21:22;;;;;;;6.73;3.13;;;;;;;17.77;81.18;98909.31;5033071;28;20229;-69
2022/10/07 09:23:53;;;;;;;4.67;2.63;;;;;;;17.83;81.25;98913.72;5032648;28;20638;-69
2022/10/07 09:26:19;;;;;;;6.93;3.23;;;;;;;17.90;79.54;98909.00;5033065;28;20193;-70
2022/10/07 09:28:46;;;;;;;4.93;2.40;;;;;;;18.21;78.13;98910.25;5033310;28;20232;-70
2022/10/07 09:31:15;;;;;;;3.13;2.77;;;;;;;18.04;79.39;98902.22;5032694;28;20238;-69
2022/10/07 09:33:45;;;;;;;7.03;2.90;;;;;;;18.06;79.79;98896.59;5032855;28;20241;-70
2022/10/07 09:36:17;;;;;;;5.37;2.83;;;;;;;18.13;78.49;98900.72;5033026;28;20202;-70
2022/10/07 09:38:45;;;;;;;5.87;2.90;;;;;;;17.97;78.68;98890.78;5033060;28;20233;-70
2022/10/07 09:41:31;;;;;;;3.83;3.10;;;;;;;18.25;78.56;98893.38;5032382;28;20248;-70
2022/10/07 09:44:01;;;;;;;7.23;3.00;;;;;;;18.40;77.52;98884.72;5031600;28;20560;-70
2022/10/07 09:46:34;;;;;;;6.07;2.40;;;;;;;18.29;79.11;98888.31;5032753;28;20194;-70
2022/10/07 09:49:03;;;;;;;6.80;3.10;;;;;;;18.43;76.59;98889.63;5032561;28;20241;-70
2022/10/07 09:51:31;;;;;;;4.30;2.70;;;;;;;18.24;77.09;98889.03;5033345;28;20222;-70
2022/10/07 09:54:02;;;;;;;8.03;3.30;;;;;;;18.11;77.31;98885.91;5032486;28;20306;-71
2022/10/07 09:56:38;;;;;;;4.73;3.00;;;;;;;18.26;76.84;98889.63;5032385;28;20670;-70
2022/10/07 09:59:16;;;;;;;5.60;2.83;;;;;;;18.31;77.51;98876.25;5032490;28;20224;-70
2022/10/07 10:01:49;;;;;;;4.67;2.80;;;;;;;18.48;77.54;98877.03;5034714;28;20721;-70
2022/10/07 10:04:18;;;;;;;4.27;2.80;;;;;;;18.57;77.17;98880.94;5036474;28;20190;-71
2022/10/07 10:06:49;;;;;;;6.73;3.27;;;;;;;18.47;76.58;98878.13;5036057;28;20688;-70
2022/10/07 10:09:23;;;;;;;5.03;3.00;;;;;;;18.21;76.18;98881.47;5036180;28;20569;-71
2022/10/07 10:12:11;;;;;;;6.40;3.90;;;;;;;18.17;76.71;98874.97;5036756;28;20197;-70
2022/10/07 10:14:48;;;;;;;3.83;3.20;;;;;;;18.45;76.26;98869.47;5035007;28;20193;-70
2022/10/07 10:17:33;;;;;;;5.90;3.00;;;;;;;18.61;76.71;98867.78;5036048;28;20201;-71
2022/10/07 10:20:26;;;;;;;6.67;3.00;;;;;;;18.50;77.43;98863.34;5036021;28;20728;-70
2022/10/07 10:22:53;;;;;;;5.33;3.57;;;;;;;18.48;75.90;98860.88;5036287;28;20206;-71
2022/10/07 10:28:52;;;;;;;5.60;3.07;;;;;;;18.88;75.55;98855.16;5035982;28;20312;-70
2022/10/07 10:31:30;;;;;;;6.80;3.53;;;;;;;18.90;75.68;98848.47;5035812;28;20248;-70
2022/10/07 10:34:06;;;;;;;6.33;3.50;;;;;;;19.11;73.99;98844.94;5035991;28;20190;-70
2022/10/07 10:36:38;;;;;;;5.70;3.27;;;;;;;18.81;74.29;98846.44;5035575;28;20190;-70
2022/10/07 10:39:17;;;;;;;4.43;3.63;;;;;;;18.58;74.57;98834.06;5034125;28;20193;-68
2022/10/07 10:41:50;;;;;;;4.87;3.50;;;;;;;18.99;73.95;98830.78;5035464;28;20261;-68
2022/10/07 10:44:32;;;;;;;4.70;3.97;;;;;;;19.18;73.41;98833.94;5035974;28;20194;-68
2022/10/07 10:47:10;;;;;;;6.57;3.70;;;;;;;18.81;77.30;98832.97;5036362;28;20549;-68
2022/10/07 10:49:44;;;;;;;3.73;3.30;;;;;;;19.02;73.31;98832.97;5033699;28;20222;-70
2022/10/07 10:52:19;;;;;;;6.03;4.27;;;;;;;19.06;73.99;98823.31;5035648;28;20190;-70
2022/10/07 10:54:55;;;;;;;7.13;3.40;;;;;;;19.05;73.20;98823.56;5035592;28;20205;-70
2022/10/07 10:57:46;;;;;;;6.60;3.77;;;;;;;19.03;74.26;98815.72;5035650;28;20190;-71
2022/10/07 11:00:16;;;;;;;5.40;3.70;;;;;;;19.43;72.75;98807.22;5034172;28;20222;-71
2022/10/07 11:03:11;;;;;;;4.43;3.27;;;;;;;19.16;74.93;98807.22;5035475;28;20587;-70
2022/10/07 11:05:41;;;;;;;5.67;3.83;;;;;;;19.00;72.82;98796.56;5035447;28;20187;-70
2022/10/07 11:08:15;;;;;;;6.97;3.90;;;;;;;19.06;74.60;98800.94;5035318;28;20206;-70
2022/10/07 11:11:01;;;;;;;5.27;4.23;;;;;;;19.11;75.15;98793.72;5034915;28;20692;-70
2022/10/07 11:13:40;;;;;;;5.93;4.30;;;;;;;19.18;73.69;98802.38;5032391;28;20190;-71
2022/10/07 11:16:24;;;;;;;6.70;3.90;;;;;;;19.19;74.76;98789.72;5034790;28;20190;-70
2022/10/07 11:19:21;;;;;;;6.70;3.40;;;;;;;19.20;73.53;98785.97;5035449;28;20186;-70
2022/10/07 11:21:50;;;;;;;4.23;3.03;;;;;;;19.45;73.60;98789.69;5022762;28;20206;-70
2022/10/07 11:24:31;;;;;;;3.97;3.17;;;;;;;19.44;72.11;98784.56;5035236;28;20213;-70
2022/10/07 11:27:13;;;;;;;4.93;3.37;;;;;;;19.41;73.29;98777.81;5035084;28;20197;-70
2022/10/07 11:29:49;;;;;;;5.47;3.80;;;;;;;19.24;73.83;98771.75;5035162;28;20209;-70
2022/10/07 11:32:22;;;;;;;6.97;3.50;;;;;;;19.44;71.91;98771.91;5034924;28;20204;-71
2022/10/07 11:35:27;;;;;;;9.07;3.70;;;;;;;19.32;74.29;98760.47;5035156;28;20202;-70
2022/10/07 11:38:12;;;;;;;5.10;4.40;;;;;;;19.13;75.40;98763.78;5031671;28;20629;-70
2022/10/07 11:41:19;;;;;;;6.13;3.80;;;;;;;19.20;74.88;98765.22;5034704;28;20226;-70
2022/10/07 11:43:49;;;;;;;5.77;3.90;;;;;;;19.15;74.17;98748.19;5023304;28;20722;-71
2022/10/07 11:46:20;;;;;;;7.93;5.03;;;;;;;19.02;74.49;98756.69;5034014;28;20289;-70
2022/10/07 11:49:00;;;;;;;8.70;4.20;;;;;;;19.28;75.03;98751.28;5032926;28;20568;-70
2022/10/07 11:51:33;;;;;;;5.97;3.80;;;;;;;19.38;74.71;98739.75;5033962;28;20248;-70
2022/10/07 11:54:03;;;;;;;5.73;4.07;;;;;;;19.29;73.43;98736.75;5034332;28;20289;-70
2022/10/07 11:56:47;;;;;;;6.60;4.10;;;;;;;19.39;73.54;98733.28;5034757;28;20212;-70
2022/10/07 11:59:42;;;;;;;7.50;3.90;;;;;;;19.57;73.42;98737.47;5032578;28;20229;-70
2022/10/07 12:02:27;;;;;;;4.83;4.23;;;;;;;19.55;73.75;98722.34;5027236;28;20205;-70